sensor_id;sensor_type;location;lat;lon;timestamp;pressure;altitude;pressure_sealevel;temperature;humidity
13661;BME280;6903;49.480;11.102;2023-06-14T00:02:00;97494.69;;;16.21;88.84
13661;BME280;6903;49.480;11.102;2023-06-14T00:04:25;97500.19;;;16.20;89.66
13661;BME280;6903;49.480;11.102;2023-06-14T00:06:51;97494.53;;;16.15;90.60
13661;BME280;6903;49.480;11.102;2023-06-14T00:09:16;97488.22;;;16.08;91.85
13661;BME280;6903;49.480;11.102;2023-06-14T00:11:43;97491.56;;;16.02;92.48
13661;BME280;6903;49.480;11.102;2023-06-14T00:14:08;97497.38;;;15.97;93.38
13661;BME280;6903;49.480;11.102;2023-06-14T00:16:33;97493.19;;;15.87;95.31
13661;BME280;6903;49.480;11.102;2023-06-14T00:19:03;97492.06;;;15.81;96.22
13661;BME280;6903;49.480;11.102;2023-06-14T00:21:31;97491.38;;;15.79;96.38
13661;BME280;6903;49.480;11.102;2023-06-14T00:23:57;97489.06;;;15.76;97.25
13661;BME280;6903;49.480;11.102;2023-06-14T00:26:23;97479.25;;;15.69;97.47
13661;BME280;6903;49.480;11.102;2023-06-14T00:28:48;97477.22;;;15.63;98.69
13661;BME280;6903;49.480;11.102;2023-06-14T00:31:14;97474.56;;;15.54;99.71
13661;BME280;6903;49.480;11.102;2023-06-14T00:33:39;97477.88;;;15.48;100.00
13661;BME280;6903;49.480;11.102;2023-06-14T00:36:05;97479.22;;;15.44;100.00
13661;BME280;6903;49.480;11.102;2023-06-14T00:38:30;97475.69;;;15.36;100.00
13661;BME280;6903;49.480;11.102;2023-06-14T00:40:55;97464.72;;;15.31;100.00
13661;BME280;6903;49.480;11.102;2023-06-14T00:43:20;97469.84;;;15.24;100.00
13661;BME280;6903;49.480;11.102;2023-06-14T00:45:46;97460.38;;;15.22;100.00
13661;BME280;6903;49.480;11.102;2023-06-14T00:48:12;97473.16;;;15.18;100.00
13661;BME280;6903;49.480;11.102;2023-06-14T00:50:37;97474.28;;;15.16;100.00
13661;BME280;6903;49.480;11.102;2023-06-14T00:53:03;97468.50;;;15.12;100.00
13661;BME280;6903;49.480;11.102;2023-06-14T00:55:29;97477.09;;;15.06;100.00
13661;BME280;6903;49.480;11.102;2023-06-14T00:57:55;97480.56;;;14.99;100.00
13661;BME280;6903;49.480;11.102;2023-06-14T01:00:21;97483.00;;;14.92;100.00
13661;BME280;6903;49.480;11.102;2023-06-14T01:02:47;97485.47;;;14.86;100.00
13661;BME280;6903;49.480;11.102;2023-06-14T01:05:13;97486.28;;;14.78;100.00
13661;BME280;6903;49.480;11.102;2023-06-14T01:08:14;97488.06;;;14.70;100.00
13661;BME280;6903;49.480;11.102;2023-06-14T01:13:45;97482.22;;;14.66;100.00
13661;BME280;6903;49.480;11.102;2023-06-14T01:16:11;97489.03;;;14.61;100.00
13661;BME280;6903;49.480;11.102;2023-06-14T01:18:37;97483.50;;;14.54;100.00
13661;BME280;6903;49.480;11.102;2023-06-14T01:21:02;97486.94;;;14.47;100.00
13661;BME280;6903;49.480;11.102;2023-06-14T01:23:31;97481.72;;;14.37;100.00
13661;BME280;6903;49.480;11.102;2023-06-14T01:26:00;97483.00;;;14.25;100.00
13661;BME280;6903;49.480;11.102;2023-06-14T01:28:28;97487.84;;;14.12;100.00
13661;BME280;6903;49.480;11.102;2023-06-14T01:30:59;97488.75;;;14.03;100.00
13661;BME280;6903;49.480;11.102;2023-06-14T01:33:26;97484.75;;;13.99;100.00
13661;BME280;6903;49.480;11.102;2023-06-14T01:35:53;97485.53;;;13.91;100.00
13661;BME280;6903;49.480;11.102;2023-06-14T01:38:21;97483.09;;;13.80;100.00
13661;BME280;6903;49.480;11.102;2023-06-14T01:40:48;97493.44;;;13.66;100.00
13661;BME280;6903;49.480;11.102;2023-06-14T01:43:16;97497.66;;;13.59;100.00
13661;BME280;6903;49.480;11.102;2023-06-14T01:45:42;97496.13;;;13.56;100.00
13661;BME280;6903;49.480;11.102;2023-06-14T01:48:08;97491.31;;;13.52;100.00
13661;BME280;6903;49.480;11.102;2023-06-14T01:50:34;97491.53;;;13.41;100.00
13661;BME280;6903;49.480;11.102;2023-06-14T01:53:00;97489.50;;;13.35;100.00
13661;BME280;6903;49.480;11.102;2023-06-14T01:55:25;97491.84;;;13.38;100.00
13661;BME280;6903;49.480;11.102;2023-06-14T01:57:51;97494.94;;;13.33;100.00
13661;BME280;6903;49.480;11.102;2023-06-14T02:00:17;97499.00;;;13.28;100.00
13661;BME280;6903;49.480;11.102;2023-06-14T02:02:43;97502.94;;;13.24;100.00
13661;BME280;6903;49.480;11.102;2023-06-14T02:05:08;97502.84;;;13.16;100.00
13661;BME280;6903;49.480;11.102;2023-06-14T02:07:35;97505.56;;;13.06;100.00
13661;BME280;6903;49.480;11.102;2023-06-14T02:10:00;97500.16;;;12.98;100.00
13661;BME280;6903;49.480;11.102;2023-06-14T02:12:26;97499.59;;;12.95;100.00
13661;BME280;6903;49.480;11.102;2023-06-14T02:14:51;97495.13;;;13.05;100.00
13661;BME280;6903;49.480;11.102;2023-06-14T02:17:16;97493.53;;;13.12;100.00
13661;BME280;6903;49.480;11.102;2023-06-14T02:19:42;97489.16;;;13.20;100.00
13661;BME280;6903;49.480;11.102;2023-06-14T02:22:07;97491.34;;;13.25;100.00
13661;BME280;6903;49.480;11.102;2023-06-14T02:24:33;97490.25;;;13.27;100.00
13661;BME280;6903;49.480;11.102;2023-06-14T02:26:58;97493.00;;;13.26;100.00
13661;BME280;6903;49.480;11.102;2023-06-14T02:29:23;97486.13;;;13.15;100.00
13661;BME280;6903;49.480;11.102;2023-06-14T02:31:48;97493.16;;;13.07;100.00
13661;BME280;6903;49.480;11.102;2023-06-14T02:34:14;97497.50;;;12.98;100.00
13661;BME280;6903;49.480;11.102;2023-06-14T02:36:42;97498.66;;;12.86;100.00
13661;BME280;6903;49.480;11.102;2023-06-14T02:39:08;97502.34;;;12.75;100.00
13661;BME280;6903;49.480;11.102;2023-06-14T02:41:37;97504.03;;;12.67;100.00
13661;BME280;6903;49.480;11.102;2023-06-14T02:44:02;97503.09;;;12.58;100.00
13661;BME280;6903;49.480;11.102;2023-06-14T02:46:28;97503.69;;;12.52;100.00
13661;BME280;6903;49.480;11.102;2023-06-14T02:48:53;97516.09;;;12.42;100.00
13661;BME280;6903;49.480;11.102;2023-06-14T02:51:18;97513.47;;;12.33;100.00
13661;BME280;6903;49.480;11.102;2023-06-14T02:53:44;97510.56;;;12.26;100.00
13661;BME280;6903;49.480;11.102;2023-06-14T02:56:09;97511.28;;;12.19;100.00
13661;BME280;6903;49.480;11.102;2023-06-14T02:58:36;97514.38;;;12.14;100.00
13661;BME280;6903;49.480;11.102;2023-06-14T03:01:02;97519.25;;;12.09;100.00
13661;BME280;6903;49.480;11.102;2023-06-14T03:03:28;97519.38;;;12.08;100.00
13661;BME280;6903;49.480;11.102;2023-06-14T03:05:53;97516.19;;;12.04;100.00
13661;BME280;6903;49.480;11.102;2023-06-14T03:08:19;97523.28;;;11.94;100.00
13661;BME280;6903;49.480;11.102;2023-06-14T03:10:48;97518.28;;;11.91;100.00
13661;BME280;6903;49.480;11.102;2023-06-14T03:13:14;97520.09;;;11.91;100.00
13661;BME280;6903;49.480;11.102;2023-06-14T03:15:41;97520.09;;;11.91;100.00
13661;BME280;6903;49.480;11.102;2023-06-14T03:18:08;97531.06;;;11.86;100.00
13661;BME280;6903;49.480;11.102;2023-06-14T03:20:35;97524.44;;;11.82;100.00
13661;BME280;6903;49.480;11.102;2023-06-14T03:23:01;97528.31;;;11.78;100.00
13661;BME280;6903;49.480;11.102;2023-06-14T03:25:28;97531.50;;;11.72;100.00
13661;BME280;6903;49.480;11.102;2023-06-14T03:27:55;97530.25;;;11.67;100.00
13661;BME280;6903;49.480;11.102;2023-06-14T03:30:20;97537.84;;;11.60;100.00
13661;BME280;6903;49.480;11.102;2023-06-14T03:32:45;97540.63;;;11.59;100.00
13661;BME280;6903;49.480;11.102;2023-06-14T03:35:11;97538.97;;;11.58;100.00
13661;BME280;6903;49.480;11.102;2023-06-14T03:37:42;97542.47;;;11.58;100.00
13661;BME280;6903;49.480;11.102;2023-06-14T03:40:07;97543.84;;;11.62;100.00
13661;BME280;6903;49.480;11.102;2023-06-14T03:42:33;97544.56;;;11.74;100.00
13661;BME280;6903;49.480;11.102;2023-06-14T03:44:59;97545.56;;;11.92;100.00
13661;BME280;6903;49.480;11.102;2023-06-14T03:47:24;97558.47;;;12.14;100.00
13661;BME280;6903;49.480;11.102;2023-06-14T03:49:49;97557.19;;;12.37;100.00
13661;BME280;6903;49.480;11.102;2023-06-14T03:52:15;97557.13;;;12.56;100.00
13661;BME280;6903;49.480;11.102;2023-06-14T03:54:41;97561.22;;;12.77;100.00
13661;BME280;6903;49.480;11.102;2023-06-14T03:57:08;97557.13;;;13.02;100.00
13661;BME280;6903;49.480;11.102;2023-06-14T03:59:33;97563.53;;;13.27;100.00
13661;BME280;6903;49.480;11.102;2023-06-14T04:01:58;97564.81;;;13.50;100.00
13661;BME280;6903;49.480;11.102;2023-06-14T04:04:24;97571.25;;;13.65;100.00
13661;BME280;6903;49.480;11.102;2023-06-14T04:06:54;97571.16;;;13.92;100.00
13661;BME280;6903;49.480;11.102;2023-06-14T04:09:19;97577.06;;;14.21;100.00
13661;BME280;6903;49.480;11.102;2023-06-14T04:11:44;97578.28;;;14.44;100.00
13661;BME280;6903;49.480;11.102;2023-06-14T04:14:10;97577.06;;;14.64;100.00
13661;BME280;6903;49.480;11.102;2023-06-14T04:16:35;97580.88;;;14.87;100.00
13661;BME280;6903;49.480;11.102;2023-06-14T04:19:00;97578.50;;;15.10;100.00
13661;BME280;6903;49.480;11.102;2023-06-14T04:21:25;97580.59;;;15.32;100.00
13661;BME280;6903;49.480;11.102;2023-06-14T04:23:52;97590.19;;;15.58;100.00
13661;BME280;6903;49.480;11.102;2023-06-14T04:26:21;97592.91;;;15.83;100.00
13661;BME280;6903;49.480;11.102;2023-06-14T04:28:46;97596.28;;;16.09;100.00
13661;BME280;6903;49.480;11.102;2023-06-14T04:31:12;97586.34;;;16.35;100.00
13661;BME280;6903;49.480;11.102;2023-06-14T04:33:37;97586.34;;;16.59;100.00
13661;BME280;6903;49.480;11.102;2023-06-14T04:36:10;97584.47;;;16.67;100.00
13661;BME280;6903;49.480;11.102;2023-06-14T04:38:37;97588.00;;;16.68;100.00
13661;BME280;6903;49.480;11.102;2023-06-14T04:41:03;97593.81;;;16.63;100.00
13661;BME280;6903;49.480;11.102;2023-06-14T04:43:28;97590.47;;;16.77;100.00
13661;BME280;6903;49.480;11.102;2023-06-14T04:45:53;97591.28;;;16.86;100.00
13661;BME280;6903;49.480;11.102;2023-06-14T04:48:21;97597.78;;;16.75;100.00
13661;BME280;6903;49.480;11.102;2023-06-14T04:50:47;97593.63;;;16.81;100.00
13661;BME280;6903;49.480;11.102;2023-06-14T04:53:13;97599.22;;;17.10;100.00
13661;BME280;6903;49.480;11.102;2023-06-14T04:55:38;97600.59;;;17.53;100.00
13661;BME280;6903;49.480;11.102;2023-06-14T04:58:04;97607.13;;;17.81;100.00
13661;BME280;6903;49.480;11.102;2023-06-14T05:00:30;97601.88;;;18.18;100.00
13661;BME280;6903;49.480;11.102;2023-06-14T05:02:55;97605.72;;;18.38;100.00
13661;BME280;6903;49.480;11.102;2023-06-14T05:05:22;97603.91;;;18.16;99.77
13661;BME280;6903;49.480;11.102;2023-06-14T05:07:47;97603.78;;;18.32;100.00
13661;BME280;6903;49.480;11.102;2023-06-14T05:10:12;97601.41;;;18.60;98.56
13661;BME280;6903;49.480;11.102;2023-06-14T05:12:38;97599.84;;;18.51;99.37
13661;BME280;6903;49.480;11.102;2023-06-14T05:15:03;97606.59;;;18.39;100.00
13661;BME280;6903;49.480;11.102;2023-06-14T05:17:29;97604.16;;;18.52;100.00
13661;BME280;6903;49.480;11.102;2023-06-14T05:19:55;97610.94;;;18.77;99.46
13661;BME280;6903;49.480;11.102;2023-06-14T05:22:21;97605.41;;;19.30;95.86
13661;BME280;6903;49.480;11.102;2023-06-14T05:24:46;97608.06;;;19.44;93.82
13661;BME280;6903;49.480;11.102;2023-06-14T05:27:13;97616.22;;;19.87;91.48
13661;BME280;6903;49.480;11.102;2023-06-14T05:29:38;97615.25;;;19.73;91.27
13661;BME280;6903;49.480;11.102;2023-06-14T05:32:04;97621.63;;;20.08;89.06
13661;BME280;6903;49.480;11.102;2023-06-14T05:34:29;97626.44;;;19.98;88.25
13661;BME280;6903;49.480;11.102;2023-06-14T05:36:54;97629.91;;;19.62;89.83
13661;BME280;6903;49.480;11.102;2023-06-14T05:39:20;97622.69;;;19.05;93.76
13661;BME280;6903;49.480;11.102;2023-06-14T05:41:45;97627.16;;;18.53;99.16
13661;BME280;6903;49.480;11.102;2023-06-14T05:44:11;97626.84;;;18.25;100.00
13661;BME280;6903;49.480;11.102;2023-06-14T05:46:36;97633.72;;;17.97;100.00
13661;BME280;6903;49.480;11.102;2023-06-14T05:49:01;97632.50;;;17.69;100.00
13661;BME280;6903;49.480;11.102;2023-06-14T05:51:27;97630.53;;;17.63;100.00
13661;BME280;6903;49.480;11.102;2023-06-14T05:53:52;97636.44;;;17.50;100.00
13661;BME280;6903;49.480;11.102;2023-06-14T05:56:18;97629.72;;;17.54;100.00
13661;BME280;6903;49.480;11.102;2023-06-14T05:58:44;97631.88;;;17.67;100.00
13661;BME280;6903;49.480;11.102;2023-06-14T06:01:09;97636.41;;;17.89;100.00
13661;BME280;6903;49.480;11.102;2023-06-14T06:03:35;97635.50;;;18.27;100.00
13661;BME280;6903;49.480;11.102;2023-06-14T06:06:00;97633.72;;;18.50;100.00
13661;BME280;6903;49.480;11.102;2023-06-14T06:08:26;97635.13;;;18.61;100.00
13661;BME280;6903;49.480;11.102;2023-06-14T06:10:52;97652.34;;;18.58;100.00
13661;BME280;6903;49.480;11.102;2023-06-14T06:13:17;97644.50;;;18.57;100.00
13661;BME280;6903;49.480;11.102;2023-06-14T06:15:42;97641.25;;;18.84;100.00
13661;BME280;6903;49.480;11.102;2023-06-14T06:18:07;97642.88;;;19.22;100.00
13661;BME280;6903;49.480;11.102;2023-06-14T06:20:33;97639.97;;;19.31;99.56
13661;BME280;6903;49.480;11.102;2023-06-14T06:22:58;97642.66;;;19.46;98.42
13661;BME280;6903;49.480;11.102;2023-06-14T06:25:25;97642.88;;;19.22;97.25
13661;BME280;6903;49.480;11.102;2023-06-14T06:27:54;97646.09;;;18.66;100.00
13661;BME280;6903;49.480;11.102;2023-06-14T06:30:21;97647.56;;;18.91;100.00
13661;BME280;6903;49.480;11.102;2023-06-14T06:32:46;97637.44;;;19.15;99.21
13661;BME280;6903;49.480;11.102;2023-06-14T06:35:12;97647.47;;;19.65;96.49
13661;BME280;6903;49.480;11.102;2023-06-14T06:37:38;97648.66;;;20.13;92.83
13661;BME280;6903;49.480;11.102;2023-06-14T06:40:04;97658.53;;;20.48;89.08
13661;BME280;6903;49.480;11.102;2023-06-14T06:42:34;97658.28;;;20.64;87.72
13661;BME280;6903;49.480;11.102;2023-06-14T06:44:59;97653.38;;;20.67;86.35
13661;BME280;6903;49.480;11.102;2023-06-14T06:47:24;97666.00;;;20.73;83.78
13661;BME280;6903;49.480;11.102;2023-06-14T06:49:50;97662.84;;;20.42;85.07
13661;BME280;6903;49.480;11.102;2023-06-14T06:52:15;97665.16;;;20.31;86.46
13661;BME280;6903;49.480;11.102;2023-06-14T06:54:41;97661.97;;;20.06;87.08
13661;BME280;6903;49.480;11.102;2023-06-14T06:57:06;97661.13;;;20.06;87.49
13661;BME280;6903;49.480;11.102;2023-06-14T06:59:32;97668.63;;;20.10;87.36
13661;BME280;6903;49.480;11.102;2023-06-14T07:01:57;97660.28;;;20.55;85.87
13661;BME280;6903;49.480;11.102;2023-06-14T07:04:23;97659.25;;;20.98;83.13
13661;BME280;6903;49.480;11.102;2023-06-14T07:06:48;97664.34;;;21.15;80.67
13661;BME280;6903;49.480;11.102;2023-06-14T07:09:13;97662.66;;;21.14;78.32
13661;BME280;6903;49.480;11.102;2023-06-14T07:11:42;97670.19;;;21.25;77.86
13661;BME280;6903;49.480;11.102;2023-06-14T07:14:07;97669.31;;;21.18;77.31
13661;BME280;6903;49.480;11.102;2023-06-14T07:16:32;97661.59;;;21.08;77.82
13661;BME280;6903;49.480;11.102;2023-06-14T07:18:58;97670.41;;;20.81;79.42
13661;BME280;6903;49.480;11.102;2023-06-14T07:21:23;97657.97;;;20.52;77.60
13661;BME280;6903;49.480;11.102;2023-06-14T07:23:51;97660.38;;;20.47;79.16
13661;BME280;6903;49.480;11.102;2023-06-14T07:26:16;97672.06;;;20.61;78.52
13661;BME280;6903;49.480;11.102;2023-06-14T07:28:41;97675.69;;;20.32;77.47
13661;BME280;6903;49.480;11.102;2023-06-14T07:31:10;97676.47;;;20.26;76.98
13661;BME280;6903;49.480;11.102;2023-06-14T07:33:36;97673.84;;;20.33;76.29
13661;BME280;6903;49.480;11.102;2023-06-14T07:36:01;97674.03;;;20.73;75.16
13661;BME280;6903;49.480;11.102;2023-06-14T07:38:26;97674.69;;;20.96;73.59
13661;BME280;6903;49.480;11.102;2023-06-14T07:40:52;97683.75;;;20.95;72.75
13661;BME280;6903;49.480;11.102;2023-06-14T07:43:17;97678.72;;;20.65;71.58
13661;BME280;6903;49.480;11.102;2023-06-14T07:45:42;97685.22;;;20.56;72.66
13661;BME280;6903;49.480;11.102;2023-06-14T07:48:09;97683.75;;;20.53;71.98
13661;BME280;6903;49.480;11.102;2023-06-14T07:50:34;97679.72;;;20.64;71.19
13661;BME280;6903;49.480;11.102;2023-06-14T07:52:59;97685.72;;;20.87;71.15
13661;BME280;6903;49.480;11.102;2023-06-14T07:55:24;97694.50;;;21.23;71.00
13661;BME280;6903;49.480;11.102;2023-06-14T07:57:50;97690.13;;;21.43;69.25
13661;BME280;6903;49.480;11.102;2023-06-14T08:00:16;97684.44;;;21.59;68.15
13661;BME280;6903;49.480;11.102;2023-06-14T08:02:43;97689.59;;;21.88;68.55
13661;BME280;6903;49.480;11.102;2023-06-14T08:05:10;97691.16;;;22.17;68.21
13661;BME280;6903;49.480;11.102;2023-06-14T08:07:36;97698.41;;;22.10;66.31
13661;BME280;6903;49.480;11.102;2023-06-14T08:10:02;97705.44;;;22.17;66.22
13661;BME280;6903;49.480;11.102;2023-06-14T08:12:27;97702.59;;;21.85;66.59
13661;BME280;6903;49.480;11.102;2023-06-14T08:14:52;97700.69;;;21.79;66.56
13661;BME280;6903;49.480;11.102;2023-06-14T08:17:18;97701.25;;;22.08;66.12
13661;BME280;6903;49.480;11.102;2023-06-14T08:19:43;97697.75;;;22.68;64.65
13661;BME280;6903;49.480;11.102;2023-06-14T08:22:08;97693.69;;;23.18;62.38
13661;BME280;6903;49.480;11.102;2023-06-14T08:24:36;97695.59;;;23.30;60.79
13661;BME280;6903;49.480;11.102;2023-06-14T08:27:02;97698.88;;;23.13;59.96
13661;BME280;6903;49.480;11.102;2023-06-14T08:29:27;97702.75;;;22.91;60.04
13661;BME280;6903;49.480;11.102;2023-06-14T08:31:54;97693.06;;;23.03;60.47
13661;BME280;6903;49.480;11.102;2023-06-14T08:34:20;97698.25;;;23.17;60.40
13661;BME280;6903;49.480;11.102;2023-06-14T08:36:45;97698.88;;;23.06;60.03
13661;BME280;6903;49.480;11.102;2023-06-14T08:39:10;97699.66;;;22.81;60.19
13661;BME280;6903;49.480;11.102;2023-06-14T08:41:36;97702.56;;;23.05;60.62
13661;BME280;6903;49.480;11.102;2023-06-14T08:44:02;97705.47;;;23.17;59.84
13661;BME280;6903;49.480;11.102;2023-06-14T08:46:30;97699.28;;;23.03;59.15
13661;BME280;6903;49.480;11.102;2023-06-14T08:48:59;97700.34;;;23.28;57.55
13661;BME280;6903;49.480;11.102;2023-06-14T08:51:25;97704.88;;;23.02;56.22
13661;BME280;6903;49.480;11.102;2023-06-14T08:53:54;97706.50;;;22.96;56.70
13661;BME280;6903;49.480;11.102;2023-06-14T08:56:26;97703.63;;;23.17;56.72
13661;BME280;6903;49.480;11.102;2023-06-14T08:58:53;97709.81;;;22.98;56.46
13661;BME280;6903;49.480;11.102;2023-06-14T09:01:18;97704.00;;;22.88;56.18
13661;BME280;6903;49.480;11.102;2023-06-14T09:03:44;97712.75;;;22.36;57.67
13661;BME280;6903;49.480;11.102;2023-06-14T09:06:10;97710.44;;;22.27;58.54
13661;BME280;6903;49.480;11.102;2023-06-14T09:08:42;97699.22;;;22.17;59.26
13661;BME280;6903;49.480;11.102;2023-06-14T09:11:12;97703.13;;;22.68;58.44
13661;BME280;6903;49.480;11.102;2023-06-14T09:13:39;97699.72;;;23.26;56.53
13661;BME280;6903;49.480;11.102;2023-06-14T09:16:05;97700.31;;;23.54;54.80
13661;BME280;6903;49.480;11.102;2023-06-14T09:18:57;97703.53;;;23.89;54.12
13661;BME280;6903;49.480;11.102;2023-06-14T09:21:22;97701.53;;;24.42;51.12
13661;BME280;6903;49.480;11.102;2023-06-14T09:23:47;97708.06;;;24.15;50.54
13661;BME280;6903;49.480;11.102;2023-06-14T09:26:18;97711.44;;;23.97;51.04
13661;BME280;6903;49.480;11.102;2023-06-14T09:28:49;97712.97;;;24.31;50.87
13661;BME280;6903;49.480;11.102;2023-06-14T09:31:17;97715.47;;;24.32;50.42
13661;BME280;6903;49.480;11.102;2023-06-14T09:33:48;97712.03;;;24.56;49.50
13661;BME280;6903;49.480;11.102;2023-06-14T09:36:24;97711.03;;;24.44;48.38
13661;BME280;6903;49.480;11.102;2023-06-14T09:39:02;97711.19;;;24.56;47.06
13661;BME280;6903;49.480;11.102;2023-06-14T09:41:32;97704.72;;;24.70;46.15
13661;BME280;6903;49.480;11.102;2023-06-14T09:44:02;97711.53;;;24.79;46.45
13661;BME280;6903;49.480;11.102;2023-06-14T09:46:28;97720.13;;;24.94;46.17
13661;BME280;6903;49.480;11.102;2023-06-14T09:48:57;97707.94;;;24.85;46.38
13661;BME280;6903;49.480;11.102;2023-06-14T09:51:23;97701.41;;;25.55;45.00
13661;BME280;6903;49.480;11.102;2023-06-14T09:53:49;97700.19;;;25.93;44.63
13661;BME280;6903;49.480;11.102;2023-06-14T09:56:28;97704.75;;;26.29;42.35
13661;BME280;6903;49.480;11.102;2023-06-14T09:58:56;97709.94;;;25.94;42.09
13661;BME280;6903;49.480;11.102;2023-06-14T10:01:23;97699.84;;;25.65;42.39
13661;BME280;6903;49.480;11.102;2023-06-14T10:03:55;97713.84;;;25.00;42.85
13661;BME280;6903;49.480;11.102;2023-06-14T10:06:22;97698.72;;;24.61;43.30
13661;BME280;6903;49.480;11.102;2023-06-14T10:08:50;97700.22;;;24.51;43.98
13661;BME280;6903;49.480;11.102;2023-06-14T10:11:17;97704.22;;;24.42;43.83
13661;BME280;6903;49.480;11.102;2023-06-14T10:13:42;97704.44;;;24.40;43.72
13661;BME280;6903;49.480;11.102;2023-06-14T10:16:19;97708.47;;;24.12;44.26
13661;BME280;6903;49.480;11.102;2023-06-14T10:18:51;97709.78;;;23.90;44.97
13661;BME280;6903;49.480;11.102;2023-06-14T10:21:25;97713.50;;;23.89;45.80
13661;BME280;6903;49.480;11.102;2023-06-14T10:23:55;97717.09;;;23.56;46.16
13661;BME280;6903;49.480;11.102;2023-06-14T10:26:22;97712.72;;;23.62;46.13
13661;BME280;6903;49.480;11.102;2023-06-14T10:29:00;97695.16;;;23.46;45.92
13661;BME280;6903;49.480;11.102;2023-06-14T10:31:55;97701.91;;;24.01;45.36
13661;BME280;6903;49.480;11.102;2023-06-14T10:34:31;97700.16;;;24.20;43.38
13661;BME280;6903;49.480;11.102;2023-06-14T10:37:03;97707.50;;;24.44;42.40
13661;BME280;6903;49.480;11.102;2023-06-14T10:39:29;97708.06;;;24.59;41.70
13661;BME280;6903;49.480;11.102;2023-06-14T10:41:56;97707.00;;;24.60;41.66
13661;BME280;6903;49.480;11.102;2023-06-14T10:46:53;97698.34;;;24.89;40.09
13661;BME280;6903;49.480;11.102;2023-06-14T10:49:19;97691.06;;;24.96;40.24
13661;BME280;6903;49.480;11.102;2023-06-14T10:51:55;97704.59;;;25.21;40.85
13661;BME280;6903;49.480;11.102;2023-06-14T10:54:22;97702.16;;;25.37;41.59
13661;BME280;6903;49.480;11.102;2023-06-14T10:56:52;97702.09;;;25.19;41.92
13661;BME280;6903;49.480;11.102;2023-06-14T10:59:19;97696.63;;;25.01;42.07
13661;BME280;6903;49.480;11.102;2023-06-14T11:04:21;97698.53;;;24.94;42.19
13661;BME280;6903;49.480;11.102;2023-06-14T11:06:49;97703.25;;;24.74;42.71
13661;BME280;6903;49.480;11.102;2023-06-14T11:09:41;97702.28;;;24.93;43.04
13661;BME280;6903;49.480;11.102;2023-06-14T11:12:10;97696.38;;;25.09;42.36
13661;BME280;6903;49.480;11.102;2023-06-14T11:14:38;97699.31;;;25.32;41.65
13661;BME280;6903;49.480;11.102;2023-06-14T11:17:03;97700.53;;;25.36;41.13
13661;BME280;6903;49.480;11.102;2023-06-14T11:19:29;97704.00;;;25.12;39.77
13661;BME280;6903;49.480;11.102;2023-06-14T11:21:54;97696.19;;;25.04;39.95
13661;BME280;6903;49.480;11.102;2023-06-14T11:24:20;97692.22;;;25.06;41.15
13661;BME280;6903;49.480;11.102;2023-06-14T11:26:46;97689.91;;;24.85;41.29
13661;BME280;6903;49.480;11.102;2023-06-14T11:29:14;97694.53;;;25.28;40.73
13661;BME280;6903;49.480;11.102;2023-06-14T11:31:43;97688.25;;;25.58;40.37
13661;BME280;6903;49.480;11.102;2023-06-14T11:34:10;97683.66;;;25.83;39.73
13661;BME280;6903;49.480;11.102;2023-06-14T11:36:35;97691.16;;;25.99;39.56
13661;BME280;6903;49.480;11.102;2023-06-14T11:39:05;97691.00;;;25.94;38.93
13661;BME280;6903;49.480;11.102;2023-06-14T11:41:42;97691.44;;;25.73;38.81
13661;BME280;6903;49.480;11.102;2023-06-14T11:44:09;97681.94;;;26.25;38.02
13661;BME280;6903;49.480;11.102;2023-06-14T11:46:34;97688.69;;;26.82;36.95
13661;BME280;6903;49.480;11.102;2023-06-14T11:49:01;97680.81;;;27.33;36.59
13661;BME280;6903;49.480;11.102;2023-06-14T11:51:29;97675.00;;;27.18;35.66
13661;BME280;6903;49.480;11.102;2023-06-14T11:53:54;97674.97;;;26.95;35.79
13661;BME280;6903;49.480;11.102;2023-06-14T11:56:20;97674.38;;;26.93;35.13
13661;BME280;6903;49.480;11.102;2023-06-14T11:58:46;97672.25;;;27.47;35.04
13661;BME280;6903;49.480;11.102;2023-06-14T12:01:16;97664.84;;;27.43;34.60
13661;BME280;6903;49.480;11.102;2023-06-14T12:03:50;97668.44;;;27.37;35.09
13661;BME280;6903;49.480;11.102;2023-06-14T12:06:16;97673.34;;;28.21;34.45
13661;BME280;6903;49.480;11.102;2023-06-14T12:08:43;97667.53;;;28.01;34.79
13661;BME280;6903;49.480;11.102;2023-06-14T12:11:14;97667.38;;;27.84;34.27
13661;BME280;6903;49.480;11.102;2023-06-14T12:13:41;97670.69;;;28.09;33.48
13661;BME280;6903;49.480;11.102;2023-06-14T12:16:10;97665.19;;;28.88;33.52
13661;BME280;6903;49.480;11.102;2023-06-14T12:18:37;97655.69;;;29.02;31.96
13661;BME280;6903;49.480;11.102;2023-06-14T12:21:07;97660.66;;;29.22;32.41
13661;BME280;6903;49.480;11.102;2023-06-14T12:23:49;97663.06;;;28.34;32.79
13661;BME280;6903;49.480;11.102;2023-06-14T12:26:18;97670.81;;;27.45;33.61
13661;BME280;6903;49.480;11.102;2023-06-14T12:28:44;97675.09;;;26.40;35.20
13661;BME280;6903;49.480;11.102;2023-06-14T12:31:15;97671.84;;;26.02;35.46
13661;BME280;6903;49.480;11.102;2023-06-14T12:33:41;97672.09;;;25.94;35.99
13661;BME280;6903;49.480;11.102;2023-06-14T12:36:08;97676.66;;;25.76;36.44
13661;BME280;6903;49.480;11.102;2023-06-14T12:38:34;97669.03;;;25.91;36.16
13661;BME280;6903;49.480;11.102;2023-06-14T12:41:00;97674.06;;;26.23;36.05
13661;BME280;6903;49.480;11.102;2023-06-14T12:43:25;97667.75;;;26.77;35.08
13661;BME280;6903;49.480;11.102;2023-06-14T12:45:51;97668.06;;;27.22;34.87
13661;BME280;6903;49.480;11.102;2023-06-14T12:48:16;97668.81;;;27.29;34.41
13661;BME280;6903;49.480;11.102;2023-06-14T12:50:42;97672.22;;;27.36;34.36
13661;BME280;6903;49.480;11.102;2023-06-14T12:53:07;97669.69;;;27.00;34.20
13661;BME280;6903;49.480;11.102;2023-06-14T12:55:32;97675.06;;;27.41;33.72
13661;BME280;6903;49.480;11.102;2023-06-14T12:57:58;97667.88;;;27.81;33.59
13661;BME280;6903;49.480;11.102;2023-06-14T13:00:23;97660.41;;;28.62;32.67
13661;BME280;6903;49.480;11.102;2023-06-14T13:02:50;97677.38;;;29.31;31.68